createdAt,value
2018-07-07T00:01:33.496Z,99.90
2018-07-07T00:04:01.673Z,99.90
2018-07-07T00:06:29.822Z,99.90
2018-07-07T00:08:57.989Z,99.90
2018-07-07T00:11:26.180Z,99.90
2018-07-07T00:13:54.329Z,99.90
2018-07-07T00:16:22.480Z,99.90
2018-07-07T00:21:18.575Z,99.90
2018-07-07T00:23:46.753Z,99.90
2018-07-07T00:26:14.911Z,99.90
2018-07-07T00:28:43.048Z,99.90
2018-07-07T00:31:11.619Z,99.90
2018-07-07T00:36:07.706Z,99.90
2018-07-07T00:38:35.880Z,99.90
2018-07-07T06:09:54.623Z,99.90
2018-07-07T06:17:44.168Z,99.90
2018-07-07T06:20:12.379Z,99.90
2018-07-07T06:22:40.594Z,99.90
2018-07-07T06:25:08.757Z,99.90
2018-07-07T06:27:36.938Z,99.90
2018-07-07T06:30:05.312Z,99.90
2018-07-07T06:32:33.557Z,99.50
2018-07-07T06:35:01.756Z,98.90
2018-07-07T06:37:29.899Z,98.60
2018-07-07T06:39:58.091Z,98.90
2018-07-07T06:42:26.381Z,98.90
2018-07-07T06:44:54.561Z,99.00
2018-07-07T06:47:22.748Z,98.90
2018-07-07T06:49:50.968Z,98.40
2018-07-07T06:52:19.172Z,98.00
2018-07-07T06:54:47.369Z,97.90
2018-07-07T06:57:15.535Z,97.60
2018-07-07T06:59:43.739Z,96.00
2018-07-07T07:02:11.866Z,95.50
2018-07-07T07:04:40.027Z,94.00
2018-07-07T07:07:08.175Z,93.00
2018-07-07T07:09:36.312Z,91.90
2018-07-07T07:12:04.541Z,91.00
2018-07-07T07:14:32.672Z,90.40
2018-07-07T07:17:00.911Z,90.00
2018-07-07T07:19:29.097Z,89.40
2018-07-07T07:21:57.236Z,87.00
2018-07-07T07:24:25.659Z,85.30
2018-07-07T07:26:53.791Z,82.40
2018-07-07T07:29:21.944Z,82.40
2018-07-07T07:31:50.154Z,81.40
2018-07-07T07:34:18.323Z,78.40
2018-07-07T07:36:53.290Z,77.80
2018-07-07T07:39:21.425Z,75.20
2018-07-07T07:41:49.580Z,75.80
2018-07-07T07:44:17.795Z,73.80
2018-07-07T07:46:46.021Z,71.40
2018-07-07T07:49:14.215Z,69.60
2018-07-07T07:51:42.549Z,68.30
2018-07-07T07:54:10.752Z,69.10
2018-07-07T07:56:38.926Z,64.60
2018-07-07T07:59:07.177Z,63.40
2018-07-07T08:04:03.230Z,62.50
2018-07-07T08:06:31.519Z,61.30
2018-07-07T08:08:59.677Z,60.60
2018-07-07T08:11:27.845Z,61.30
2018-07-07T08:13:56.024Z,59.10
2018-07-07T08:16:24.251Z,57.30
2018-07-07T08:18:52.779Z,56.40
2018-07-07T08:21:20.943Z,53.80
2018-07-07T08:23:49.092Z,53.20
2018-07-07T08:26:17.332Z,52.80
2018-07-07T08:28:45.457Z,52.60
2018-07-07T08:31:13.592Z,53.40
2018-07-07T08:33:41.788Z,52.80
2018-07-07T08:36:09.967Z,52.40
2018-07-07T08:38:38.166Z,52.60
2018-07-07T08:41:06.429Z,52.20
2018-07-07T08:43:34.583Z,52.20
2018-07-07T08:46:02.736Z,51.40
2018-07-07T08:48:30.904Z,51.00
2018-07-07T08:50:59.089Z,51.70
2018-07-07T08:53:27.252Z,49.90
2018-07-07T08:55:55.508Z,48.10
2018-07-07T08:58:23.704Z,47.30
2018-07-07T09:00:51.876Z,49.00
2018-07-07T09:03:20.089Z,50.00
2018-07-07T09:05:48.248Z,48.60
2018-07-07T09:08:16.503Z,48.70
2018-07-07T09:10:44.668Z,48.90
2018-07-07T09:13:12.824Z,47.70
2018-07-07T09:15:40.996Z,45.70
2018-07-07T09:18:09.248Z,44.70
2018-07-07T09:20:37.444Z,44.80
2018-07-07T09:23:05.599Z,46.00
2018-07-07T09:25:34.045Z,42.40
2018-07-07T09:28:02.446Z,40.60
2018-07-07T09:30:30.830Z,40.30
2018-07-07T09:32:59.091Z,40.50
2018-07-07T09:35:27.341Z,39.60
2018-07-07T09:37:55.547Z,40.70
2018-07-07T09:40:23.725Z,42.50
2018-07-07T09:42:51.884Z,43.10
2018-07-07T09:45:20.155Z,44.10
2018-07-07T09:47:48.377Z,46.50
2018-07-07T09:50:16.539Z,45.90
2018-07-07T09:52:44.718Z,45.90
2018-07-07T09:55:12.932Z,44.60
2018-07-07T09:57:41.132Z,43.40
2018-07-07T10:00:14.396Z,43.00
2018-07-07T10:02:42.598Z,42.50
2018-07-07T10:05:10.794Z,42.70
2018-07-07T10:07:39.029Z,42.70
2018-07-07T10:10:07.164Z,44.10
2018-07-07T10:12:35.311Z,43.60
2018-07-07T10:15:03.801Z,46.20
2018-07-07T10:17:31.943Z,46.20
2018-07-07T10:20:00.118Z,47.40
2018-07-07T10:22:28.311Z,47.50
2018-07-07T10:24:56.483Z,48.80
2018-07-07T10:27:24.736Z,50.30
2018-07-07T10:29:52.919Z,50.80
2018-07-07T10:32:21.118Z,50.20
2018-07-07T10:34:49.471Z,48.50
2018-07-07T10:37:17.628Z,46.60
2018-07-07T10:39:45.804Z,46.30
2018-07-07T10:42:14.099Z,44.90
2018-07-07T10:44:51.123Z,42.80
2018-07-07T10:47:19.405Z,41.90
2018-07-07T10:52:22.067Z,43.40
2018-07-07T10:54:53.424Z,45.00
2018-07-07T10:57:23.375Z,46.30
2018-07-07T10:59:52.224Z,46.20
2018-07-07T11:02:20.431Z,45.50
2018-07-07T11:04:48.596Z,45.90
2018-07-07T11:07:16.772Z,45.10
2018-07-07T11:09:45.026Z,42.00
2018-07-07T11:12:13.391Z,40.90
2018-07-07T11:17:09.520Z,40.00
2018-07-07T11:19:37.775Z,39.40
2018-07-07T11:22:06.081Z,39.00
2018-07-07T11:24:34.370Z,38.60
2018-07-07T11:27:02.566Z,38.00
2018-07-07T11:29:30.841Z,38.60
2018-07-07T11:31:59.088Z,39.80
2018-07-07T11:34:27.352Z,40.60
2018-07-07T11:36:55.684Z,40.90
2018-07-07T11:39:24.109Z,42.30
2018-07-07T11:41:55.065Z,41.60
2018-07-07T11:44:23.279Z,41.70
2018-07-07T11:46:51.485Z,42.70
2018-07-07T11:49:19.709Z,42.50
2018-07-07T11:51:47.944Z,42.80
2018-07-07T11:54:16.138Z,43.80
2018-07-07T11:56:44.339Z,44.00
2018-07-07T11:59:12.877Z,44.50
2018-07-07T12:01:41.107Z,44.00
2018-07-07T12:04:09.281Z,45.30
2018-07-07T12:06:37.422Z,44.40
2018-07-07T12:09:06.122Z,45.30
2018-07-07T12:11:34.343Z,43.50
2018-07-07T12:14:02.467Z,41.70
2018-07-07T12:16:30.635Z,41.60
2018-07-07T12:18:58.826Z,42.80
2018-07-07T12:21:27.125Z,43.10
2018-07-07T12:23:55.271Z,42.60
2018-07-07T12:26:23.400Z,42.70
2018-07-07T12:28:51.639Z,43.50
2018-07-07T12:31:19.862Z,42.60
2018-07-07T12:33:47.962Z,41.00
2018-07-07T12:36:16.162Z,39.40
2018-07-07T12:38:44.568Z,37.30
2018-07-07T12:41:12.973Z,36.80
2018-07-07T12:43:41.172Z,35.60
2018-07-07T12:46:09.268Z,36.10
2018-07-07T12:48:37.393Z,37.30
2018-07-07T12:51:05.566Z,37.60
2018-07-07T12:53:33.755Z,38.90
2018-07-07T12:56:01.895Z,39.90
2018-07-07T12:58:30.061Z,41.30
2018-07-07T13:00:58.236Z,41.90
2018-07-07T13:03:26.372Z,41.70
2018-07-07T13:05:54.602Z,42.80
2018-07-07T13:08:22.732Z,41.80
2018-07-07T13:10:51.926Z,40.50
2018-07-07T13:13:21.163Z,39.40
2018-07-07T13:15:49.664Z,38.00
2018-07-07T13:18:18.003Z,36.40
2018-07-07T13:20:47.987Z,35.10
2018-07-07T13:23:18.213Z,36.10
2018-07-07T13:25:48.141Z,35.70
2018-07-07T13:28:22.036Z,35.10
2018-07-07T13:30:51.897Z,35.70
2018-07-07T13:33:21.110Z,37.80
2018-07-07T13:35:49.277Z,38.50
2018-07-07T13:38:17.432Z,39.60
2018-07-07T13:40:45.698Z,40.20
2018-07-07T13:43:13.939Z,40.80
2018-07-07T13:45:42.183Z,42.10
2018-07-07T13:48:10.451Z,44.40
2018-07-07T13:50:38.592Z,44.60
2018-07-07T13:53:10.886Z,45.70
2018-07-07T13:55:39.144Z,43.00
2018-07-07T13:58:07.326Z,39.20
2018-07-07T14:00:35.519Z,37.30
2018-07-07T14:03:04.820Z,35.00
2018-07-07T14:05:32.979Z,33.80
2018-07-07T14:08:01.178Z,32.20
2018-07-07T14:10:29.369Z,32.90
2018-07-07T14:12:57.667Z,32.60
2018-07-07T14:15:25.974Z,32.20
2018-07-07T14:17:54.234Z,31.40
2018-07-07T14:20:22.451Z,30.40
2018-07-07T14:22:51.148Z,31.50
2018-07-07T14:25:19.331Z,32.10
2018-07-07T14:27:47.782Z,31.80
2018-07-07T14:30:15.926Z,31.00
2018-07-07T14:32:44.171Z,30.70
2018-07-07T14:35:12.402Z,30.90
2018-07-07T14:37:40.553Z,31.20
2018-07-07T14:40:08.723Z,33.30
2018-07-07T14:42:42.790Z,34.00
2018-07-07T14:45:13.750Z,35.30
2018-07-07T14:47:42.033Z,37.10
2018-07-07T14:50:10.370Z,36.60
2018-07-07T14:52:38.761Z,36.40
2018-07-07T14:55:07.065Z,35.80
2018-07-07T14:57:35.644Z,34.00
2018-07-07T15:00:03.915Z,34.20
2018-07-07T15:02:32.116Z,34.10
2018-07-07T15:05:00.366Z,33.50
2018-07-07T15:07:28.526Z,34.80
2018-07-07T15:09:56.797Z,36.20
2018-07-07T15:12:25.100Z,37.00
2018-07-07T15:14:53.544Z,38.00
2018-07-07T15:17:21.966Z,35.80
2018-07-07T15:19:50.338Z,33.90
2018-07-07T15:22:18.518Z,31.70
2018-07-07T15:24:47.032Z,29.10
2018-07-07T15:27:15.328Z,29.50
2018-07-07T15:29:43.557Z,28.60
2018-07-07T15:32:11.744Z,27.40
2018-07-07T15:34:42.292Z,28.40
2018-07-07T15:37:10.540Z,27.90
2018-07-07T15:39:38.751Z,28.30
2018-07-07T15:42:07.215Z,27.20
2018-07-07T15:44:35.439Z,27.10
2018-07-07T15:47:03.764Z,27.50
2018-07-07T15:49:32.346Z,26.20
2018-07-07T15:52:00.642Z,27.30
2018-07-07T15:54:28.901Z,27.80
2018-07-07T15:56:57.180Z,28.40
2018-07-07T15:59:25.466Z,28.70
2018-07-07T16:02:00.397Z,28.10
2018-07-07T16:04:28.558Z,28.50
2018-07-07T16:06:56.747Z,28.70
2018-07-07T16:09:25.020Z,27.50
2018-07-07T16:11:53.327Z,28.00
2018-07-07T16:14:21.536Z,28.40
2018-07-07T16:16:50.969Z,28.80
2018-07-07T16:19:19.171Z,28.70
2018-07-07T16:21:47.536Z,28.80
2018-07-07T16:24:16.741Z,28.50
2018-07-07T16:26:44.979Z,28.70
2018-07-07T16:29:13.144Z,28.40
2018-07-07T16:31:41.366Z,28.60
2018-07-07T16:34:09.677Z,29.30
2018-07-07T16:36:37.902Z,29.40
2018-07-07T16:39:06.575Z,29.90
2018-07-07T16:41:35.314Z,29.60
2018-07-07T16:44:03.723Z,30.00
2018-07-07T16:49:00.260Z,31.40
2018-07-07T16:51:28.423Z,32.50
2018-07-07T16:53:56.590Z,33.90
2018-07-07T16:56:24.828Z,34.20
2018-07-07T16:58:53.088Z,34.30
2018-07-07T17:01:21.531Z,34.00
2018-07-07T17:03:49.797Z,34.30
2018-07-07T17:06:17.959Z,34.60
2018-07-07T17:08:46.514Z,35.20
2018-07-07T17:11:15.799Z,36.50
2018-07-07T17:16:11.898Z,40.00
2018-07-07T17:18:40.034Z,40.90
2018-07-07T17:21:08.307Z,42.90
2018-07-07T17:23:36.490Z,44.60
2018-07-07T17:26:05.852Z,46.30
2018-07-07T17:28:33.994Z,47.60
2018-07-07T17:31:02.905Z,48.70
2018-07-07T17:33:31.162Z,49.70
2018-07-07T17:35:59.790Z,50.40
2018-07-07T17:38:28.909Z,50.70
2018-07-07T17:43:25.280Z,53.00
2018-07-07T17:45:53.894Z,53.90
2018-07-07T17:48:22.047Z,54.80
2018-07-07T17:50:50.460Z,55.00
2018-07-07T17:53:19.531Z,56.00
2018-07-07T17:55:47.727Z,55.70
2018-07-07T17:58:15.934Z,55.70
2018-07-07T18:03:12.339Z,56.70
2018-07-07T18:05:41.985Z,55.00
2018-07-07T18:08:10.250Z,56.40
2018-07-07T18:10:38.617Z,58.10
2018-07-07T18:13:07.022Z,58.20
2018-07-07T18:15:35.275Z,59.10
2018-07-07T18:18:03.438Z,59.70
2018-07-07T18:20:31.727Z,60.00
2018-07-07T18:22:59.935Z,60.60
2018-07-07T18:27:55.993Z,63.30
2018-07-07T18:30:24.235Z,63.00
2018-07-07T18:32:52.373Z,63.70
2018-07-07T18:35:20.640Z,64.30
2018-07-07T18:37:49.799Z,66.00
2018-07-07T18:40:17.955Z,65.70
2018-07-07T18:42:46.202Z,68.00
2018-07-07T18:45:14.379Z,68.00
2018-07-07T18:47:42.614Z,69.40
2018-07-07T18:50:10.838Z,69.00
2018-07-07T18:52:39.027Z,69.50
2018-07-07T18:55:07.264Z,70.00
2018-07-07T18:57:35.491Z,70.50
2018-07-07T19:00:03.684Z,70.60
2018-07-07T19:02:31.814Z,71.50
2018-07-07T19:05:00.086Z,73.00
2018-07-07T19:07:28.321Z,73.40
2018-07-07T19:09:56.451Z,74.00
2018-07-07T19:12:24.627Z,74.50
2018-07-07T19:14:56.394Z,75.40
2018-07-07T19:17:24.539Z,76.50
2018-07-07T19:19:52.696Z,77.10
2018-07-07T19:22:26.427Z,77.10
2018-07-07T19:25:00.056Z,77.50
2018-07-07T19:27:28.225Z,77.50
2018-07-07T19:29:56.399Z,78.20
2018-07-07T19:32:29.853Z,79.70
2018-07-07T19:37:05.294Z,80.40
2018-07-07T19:39:33.672Z,81.40
2018-07-07T19:42:01.799Z,82.70
2018-07-07T19:44:30.080Z,83.30
2018-07-07T19:46:59.329Z,84.30
2018-07-07T19:49:27.491Z,86.00
2018-07-07T19:51:55.727Z,86.40
2018-07-07T19:54:23.864Z,86.80
2018-07-07T19:56:51.983Z,87.10
2018-07-07T19:59:20.194Z,87.70
2018-07-07T20:04:16.338Z,88.90
2018-07-07T20:06:44.467Z,89.40
2018-07-07T20:09:12.990Z,90.10
2018-07-07T20:11:41.182Z,90.50
2018-07-07T20:14:09.348Z,90.90
2018-07-07T20:16:48.676Z,90.90
2018-07-07T20:19:21.187Z,90.90
2018-07-07T20:21:51.608Z,91.30
2018-07-07T20:24:21.640Z,91.90
2018-07-07T20:26:55.053Z,92.20
2018-07-07T20:29:23.403Z,92.20
2018-07-07T20:31:52.878Z,92.20
2018-07-07T20:34:23.270Z,92.50
2018-07-07T20:36:52.063Z,93.10
2018-07-07T20:39:20.658Z,93.30
2018-07-07T20:41:49.655Z,93.50
2018-07-07T20:44:18.130Z,93.60
2018-07-07T20:46:46.420Z,93.90
2018-07-07T20:49:14.579Z,94.20
2018-07-07T20:51:42.757Z,94.40
2018-07-07T20:54:10.910Z,94.50
2018-07-07T20:56:39.210Z,94.70
2018-07-07T20:59:07.460Z,94.90
2018-07-07T21:01:35.786Z,94.90
2018-07-07T21:04:03.935Z,95.00
2018-07-07T21:06:33.175Z,95.10
2018-07-07T21:09:01.315Z,95.30
2018-07-07T21:11:29.497Z,95.60
2018-07-07T21:13:57.818Z,96.00
2018-07-07T21:16:26.118Z,95.90
2018-07-07T21:18:54.859Z,95.90
2018-07-07T21:23:51.252Z,96.30
2018-07-07T21:26:19.424Z,96.90
2018-07-07T21:28:47.641Z,97.10
2018-07-07T21:31:15.815Z,97.60
2018-07-07T21:33:43.982Z,97.90
2018-07-07T21:36:12.257Z,97.90
2018-07-07T21:38:40.431Z,98.00
2018-07-07T21:41:08.623Z,98.00
2018-07-07T21:43:37.610Z,98.10
2018-07-07T21:46:05.929Z,98.20
2018-07-07T21:48:34.106Z,98.40
2018-07-07T21:51:02.398Z,98.50
2018-07-07T21:53:30.559Z,98.70
2018-07-07T21:55:58.722Z,98.70
2018-07-07T21:58:27.893Z,99.10
2018-07-07T22:01:14.308Z,99.20
2018-07-07T22:03:47.703Z,99.30
2018-07-07T22:06:21.331Z,99.30
2018-07-07T22:08:49.590Z,99.10
2018-07-07T22:11:17.762Z,99.00
2018-07-07T22:13:45.960Z,98.90
2018-07-07T22:16:14.146Z,99.00
2018-07-07T22:18:42.334Z,99.20
2018-07-07T22:21:21.894Z,99.60
2018-07-07T22:23:50.062Z,99.80
2018-07-07T22:26:18.243Z,99.90
2018-07-07T22:28:46.390Z,99.90
2018-07-07T22:31:14.574Z,99.90
2018-07-07T22:33:42.723Z,99.90
2018-07-07T22:36:16.101Z,99.90
2018-07-07T22:38:49.750Z,99.90
2018-07-07T22:41:17.902Z,99.90
2018-07-07T22:43:46.302Z,99.90
2018-07-07T22:46:14.520Z,99.90
2018-07-07T22:48:42.643Z,99.90
2018-07-07T22:51:10.810Z,99.90
2018-07-07T22:53:38.997Z,99.90
2018-07-07T22:56:07.208Z,99.90
2018-07-07T22:58:35.419Z,99.90
2018-07-07T23:01:03.601Z,99.90
2018-07-07T23:03:31.855Z,99.90
2018-07-07T23:06:00.037Z,99.90
2018-07-07T23:10:56.087Z,99.90
2018-07-07T23:13:24.991Z,99.90
2018-07-07T23:15:54.264Z,99.90
2018-07-07T23:18:28.195Z,99.90
2018-07-07T23:20:57.991Z,99.90
2018-07-07T23:23:26.646Z,99.90
2018-07-07T23:26:00.556Z,99.90
2018-07-07T23:28:29.330Z,99.90
2018-07-07T23:30:58.157Z,99.90
2018-07-07T23:33:27.079Z,99.90
2018-07-07T23:35:55.763Z,99.90
2018-07-07T23:38:24.545Z,99.90
2018-07-07T23:40:53.296Z,99.90
2018-07-07T23:43:33.266Z,99.90
2018-07-07T23:46:02.283Z,99.90
2018-07-07T23:48:31.243Z,99.90
2018-07-07T23:50:59.942Z,99.90
2018-07-07T23:53:28.770Z,99.90
2018-07-07T23:55:57.761Z,99.90
2018-07-07T23:58:42.487Z,99.90
